Time;durP1;ratioP1;P1;durP2;ratioP2;P2;SDS_P1;SDS_P2;PMS_P1;PMS_P2;Temp;Humidity;BMP_temperature;BMP_pressure;BME280_temperature;BME280_humidity;BME280_pressure;Samples;Min_cycle;Max_cycle;Signal;HPM_P1;HPM_P2
2021/10/12 00:00:00;;;;;;;3.63;2.40;;;;;;;21.85;35.37;100503.44;4992268;28;20093;-67
2021/10/12 00:02:27;;;;;;;3.95;2.30;;;;;;;21.89;35.04;100501.53;4985068;28;20081;-67
2021/10/12 00:04:54;;;;;;;6.10;2.72;;;;;;;21.74;34.68;100490.91;4991484;28;20046;-67
2021/10/12 00:07:21;;;;;;;5.70;2.78;;;;;;;21.58;34.86;100453.06;4991451;28;20453;-58
2021/10/12 00:09:48;;;;;;;3.50;1.80;;;;;;;21.89;34.99;100504.38;4982596;28;20254;-62
2021/10/12 00:12:16;;;;;;;3.97;2.25;;;;;;;21.73;34.69;100473.03;4985940;28;20538;-62
2021/10/12 00:14:43;;;;;;;3.70;2.22;;;;;;;21.87;34.54;100501.06;4990587;28;20054;-62
2021/10/12 00:17:11;;;;;;;5.22;2.58;;;;;;;21.89;34.53;100495.03;4991365;28;20485;-62
2021/10/12 00:19:38;;;;;;;6.28;2.53;;;;;;;21.86;34.66;100495.75;4990052;28;20093;-62
2021/10/12 00:22:05;;;;;;;4.10;2.05;;;;;;;21.82;34.48;100501.31;4991192;28;20134;-60
2021/10/12 00:24:32;;;;;;;6.25;2.10;;;;;;;21.86;34.31;100501.44;4986927;28;20245;-59
2021/10/12 00:26:59;;;;;;;2.63;1.80;;;;;;;21.81;34.21;100501.66;4988487;28;20052;-64
2021/10/12 00:29:26;;;;;;;5.20;1.85;;;;;;;21.81;34.34;100493.13;4990684;28;20085;-64
2021/10/12 00:31:53;;;;;;;3.45;1.73;;;;;;;21.77;34.16;100495.88;4989876;28;20152;-65
2021/10/12 00:34:20;;;;;;;3.83;1.98;;;;;;;21.84;34.12;100498.94;4987736;28;20134;-64
2021/10/12 00:36:47;;;;;;;3.55;2.10;;;;;;;21.81;33.73;100495.97;4989963;28;20141;-64
2021/10/12 00:39:13;;;;;;;4.13;2.00;;;;;;;21.76;33.72;100491.38;4991333;28;20450;-65
2021/10/12 00:41:40;;;;;;;4.72;2.53;;;;;;;21.80;33.81;100495.16;4988999;28;20078;-65
2021/10/12 00:44:08;;;;;;;4.72;2.45;;;;;;;21.74;33.75;100486.06;4994081;28;20137;-66
2021/10/12 00:46:35;;;;;;;5.35;2.40;;;;;;;21.67;33.98;100485.00;4993721;28;20125;-65
2021/10/12 00:49:03;;;;;;;8.45;2.10;;;;;;;21.70;33.71;100485.09;4992117;28;20052;-63
2021/10/12 00:51:30;;;;;;;4.40;2.40;;;;;;;21.61;33.83;100467.38;4991461;28;20122;-65
2021/10/12 00:53:57;;;;;;;5.30;2.38;;;;;;;21.69;33.59;100482.63;4979219;28;20165;-65
2021/10/12 00:56:24;;;;;;;6.00;2.10;;;;;;;21.75;33.60;100489.72;4988395;28;20126;-66
2021/10/12 00:58:51;;;;;;;4.40;2.50;;;;;;;21.69;33.83;100494.00;4985742;28;20046;-66
2021/10/12 01:01:19;;;;;;;2.83;1.52;;;;;;;21.68;33.97;100498.03;4984499;28;20137;-64
2021/10/12 01:03:46;;;;;;;5.00;2.30;;;;;;;21.53;33.60;100474.81;4993964;28;20125;-64
2021/10/12 01:06:13;;;;;;;6.07;2.20;;;;;;;21.67;33.68;100490.69;4995177;28;20058;-62
2021/10/12 01:08:40;;;;;;;3.33;1.90;;;;;;;21.58;33.49;100484.31;4988548;28;20137;-64
2021/10/12 01:11:07;;;;;;;3.80;2.10;;;;;;;21.67;33.52;100487.84;4989377;28;20480;-64
2021/10/12 01:13:34;;;;;;;4.70;2.40;;;;;;;21.64;33.29;100497.06;4993300;28;20417;-65
2021/10/12 01:16:02;;;;;;;3.70;2.10;;;;;;;21.58;33.52;100495.69;4993744;28;20134;-65
2021/10/12 01:18:29;;;;;;;4.10;1.98;;;;;;;21.59;33.42;100492.47;4991973;28;20173;-63
2021/10/12 01:20:56;;;;;;;4.10;2.17;;;;;;;21.58;33.09;100490.00;4987379;28;20039;-65
2021/10/12 01:23:23;;;;;;;4.95;1.80;;;;;;;21.52;32.89;100489.41;4993780;28;20174;-65
2021/10/12 01:25:50;;;;;;;3.10;1.77;;;;;;;21.59;32.92;100488.81;4990996;28;20133;-66
2021/10/12 01:28:17;;;;;;;5.30;2.10;;;;;;;21.54;32.79;100487.03;4988874;28;20054;-67
2021/10/12 01:30:44;;;;;;;4.63;1.77;;;;;;;21.46;32.54;100480.28;4993559;28;20125;-67
2021/10/12 01:33:12;;;;;;;3.35;1.77;;;;;;;21.42;32.51;100473.66;4993692;28;20048;-65
2021/10/12 01:35:39;;;;;;;4.88;1.95;;;;;;;21.48;31.97;100469.41;4992140;28;20070;-66
2021/10/12 01:38:06;;;;;;;3.50;2.03;;;;;;;21.61;31.67;100492.94;4990618;28;20097;-66
2021/10/12 01:40:33;;;;;;;6.40;2.53;;;;;;;21.62;31.52;100488.09;4992119;28;20129;-65
2021/10/12 01:43:00;;;;;;;5.70;1.95;;;;;;;21.60;31.39;100491.28;4983053;28;20150;-63
2021/10/12 01:45:27;;;;;;;1.85;1.27;;;;;;;21.50;31.38;100475.56;4986846;28;20125;-66
2021/10/12 01:47:54;;;;;;;6.97;1.25;;;;;;;21.57;30.82;100491.16;4992219;28;20133;-65
2021/10/12 01:50:21;;;;;;;5.18;1.70;;;;;;;21.68;30.41;100492.34;4990656;28;20081;-65
2021/10/12 01:52:48;;;;;;;4.40;1.98;;;;;;;21.68;30.54;100496.00;4991729;28;20049;-61
2021/10/12 01:55:20;;;;;;;1.73;1.08;;;;;;;21.68;30.40;100487.50;4988344;28;20080;-70
2021/10/12 01:57:47;;;;;;;4.63;2.38;;;;;;;21.60;30.52;100479.09;4989561;28;20085;-63
2021/10/12 02:00:14;;;;;;;3.30;2.08;;;;;;;21.64;30.62;100485.69;4992005;28;20046;-66
2021/10/12 02:02:41;;;;;;;7.05;2.03;;;;;;;21.51;30.86;100476.38;4988537;28;20097;-66
2021/10/12 02:05:08;;;;;;;4.55;2.17;;;;;;;21.57;30.96;100486.31;4984941;28;20108;-64
2021/10/12 02:07:35;;;;;;;3.42;1.95;;;;;;;21.61;30.87;100483.59;4985415;28;20094;-65
2021/10/12 02:10:03;;;;;;;2.78;1.67;;;;;;;21.56;30.78;100475.31;4993146;28;20125;-66
2021/10/12 02:12:30;;;;;;;4.45;2.72;;;;;;;21.67;30.81;100496.34;4987585;28;20108;-66
2021/10/12 02:14:57;;;;;;;4.70;2.22;;;;;;;21.47;30.85;100470.59;4993657;28;20086;-60
2021/10/12 02:17:24;;;;;;;6.70;2.20;;;;;;;21.42;30.66;100450.09;4981809;28;20142;-61
2021/10/12 02:19:51;;;;;;;4.50;1.73;;;;;;;21.39;30.73;100457.31;4986700;28;20133;-62
2021/10/12 02:22:18;;;;;;;3.95;1.92;;;;;;;21.58;30.60;100487.97;4991741;28;20137;-62
2021/10/12 02:24:45;;;;;;;4.80;2.00;;;;;;;21.58;30.52;100481.47;4990638;28;20068;-66
2021/10/12 02:27:11;;;;;;;3.90;2.30;;;;;;;21.56;30.59;100478.16;4981987;28;20101;-63
2021/10/12 02:29:38;;;;;;;4.07;2.20;;;;;;;21.60;30.45;100487.59;4989867;28;20461;-64
2021/10/12 02:32:05;;;;;;;4.30;1.90;;;;;;;21.60;30.43;100479.91;4985559;28;20125;-63
2021/10/12 02:34:32;;;;;;;6.20;2.08;;;;;;;21.60;30.41;100476.25;4990649;28;20074;-61
2021/10/12 02:36:59;;;;;;;3.40;2.10;;;;;;;21.51;30.30;100463.00;4991303;28;20590;-65
2021/10/12 02:39:26;;;;;;;3.80;1.73;;;;;;;21.58;30.25;100482.28;4982961;28;20130;-66
2021/10/12 02:41:53;;;;;;;3.75;1.70;;;;;;;21.61;30.22;100467.38;4985622;28;20061;-66
2021/10/12 02:44:20;;;;;;;6.20;2.17;;;;;;;21.55;30.12;100457.44;4992260;28;20446;-63
2021/10/12 02:46:47;;;;;;;5.22;2.22;;;;;;;21.62;30.24;100471.03;4979332;28;20137;-59
2021/10/12 02:49:13;;;;;;;7.07;1.80;;;;;;;21.48;30.19;100454.38;4982153;28;20120;-59
2021/10/12 02:51:40;;;;;;;3.63;1.90;;;;;;;21.55;30.35;100468.78;4988190;28;20096;-64
2021/10/12 02:54:07;;;;;;;11.20;2.03;;;;;;;21.46;30.50;100465.25;4982873;28;21256;-66
2021/10/12 02:56:34;;;;;;;3.92;2.20;;;;;;;21.44;30.41;100465.63;4991606;28;20144;-65
2021/10/12 02:59:01;;;;;;;3.28;2.00;;;;;;;21.36;30.46;100458.03;4988541;28;20097;-66
2021/10/12 03:01:28;;;;;;;3.33;2.00;;;;;;;21.31;30.55;100458.25;4990231;28;20157;-66
2021/10/12 03:03:55;;;;;;;7.85;2.50;;;;;;;21.15;30.49;100445.94;4990469;28;20050;-66
2021/10/12 03:06:22;;;;;;;4.57;1.83;;;;;;;21.20;30.57;100454.25;4973682;28;20891;-63
2021/10/12 03:08:49;;;;;;;6.65;2.30;;;;;;;21.05;30.80;100435.88;4990855;28;20105;-65
2021/10/12 03:11:16;;;;;;;4.00;2.13;;;;;;;21.03;30.84;100449.63;4989540;28;20043;-65
2021/10/12 03:13:43;;;;;;;4.45;2.30;;;;;;;20.97;30.99;100445.34;4990803;28;20054;-68
2021/10/12 03:16:10;;;;;;;5.53;2.53;;;;;;;20.94;31.21;100446.88;4982260;28;20086;-67
2021/10/12 03:18:38;;;;;;;3.75;2.10;;;;;;;20.89;30.87;100444.28;4989778;28;20149;-64
2021/10/12 03:21:05;;;;;;;3.25;2.47;;;;;;;20.87;30.93;100429.59;4987096;28;20077;-65
2021/10/12 03:23:32;;;;;;;5.13;2.17;;;;;;;20.91;31.04;100441.91;4992253;28;20043;-67
2021/10/12 03:25:59;;;;;;;6.30;2.45;;;;;;;20.86;31.00;100427.94;4987389;28;20074;-70
2021/10/12 03:28:26;;;;;;;3.95;2.20;;;;;;;20.91;30.96;100441.91;4983785;28;20089;-68
2021/10/12 03:30:53;;;;;;;7.35;2.10;;;;;;;20.79;30.84;100427.72;4978108;28;20081;-71
2021/10/12 03:33:20;;;;;;;3.47;1.95;;;;;;;20.81;30.64;100431.00;4992442;28;20073;-72
2021/10/12 03:36:14;;;;;;;4.85;2.30;;;;;;;20.94;30.68;100432.69;4987025;28;20156;-72
2021/10/12 03:38:36;;;;;;;;;;;;;;;20.91;30.82;100441.91;4979998;28;20145;-65
2021/10/12 03:41:03;;;;;;;5.88;2.05;;;;;;;20.92;30.68;100431.38;4982515;28;20348;-63
2021/10/12 03:43:30;;;;;;;6.43;2.63;;;;;;;20.92;30.58;100443.56;4987891;28;20458;-68
2021/10/12 03:45:57;;;;;;;6.38;2.22;;;;;;;20.93;30.99;100436.72;4989721;28;20050;-65
2021/10/12 03:48:24;;;;;;;3.90;2.00;;;;;;;20.83;30.94;100429.47;4983956;28;20059;-66
2021/10/12 03:50:50;;;;;;;2.88;1.70;;;;;;;20.90;31.05;100443.09;4989128;28;20078;-63
2021/10/12 03:53:17;;;;;;;2.97;1.75;;;;;;;20.86;31.38;100432.81;4990732;28;20054;-66
2021/10/12 03:55:44;;;;;;;3.15;1.75;;;;;;;20.86;31.07;100439.31;4977728;28;20134;-65
2021/10/12 03:58:11;;;;;;;3.25;1.90;;;;;;;20.72;31.10;100421.78;4983942;28;20130;-64
2021/10/12 04:00:38;;;;;;;3.42;1.75;;;;;;;20.71;31.29;100431.47;4987734;28;20047;-64
2021/10/12 04:03:05;;;;;;;5.60;2.08;;;;;;;20.68;31.60;100435.00;4985571;28;20070;-62
2021/10/12 04:05:32;;;;;;;2.92;1.63;;;;;;;20.61;31.60;100429.91;4986934;28;20089;-63
2021/10/12 04:07:59;;;;;;;4.95;1.83;;;;;;;20.57;31.76;100429.78;4988720;28;20589;-65
2021/10/12 04:10:26;;;;;;;2.15;1.45;;;;;;;20.58;31.99;100434.28;4988617;28;20236;-61
2021/10/12 04:12:53;;;;;;;2.65;1.48;;;;;;;20.46;32.02;100410.69;4989955;28;20109;-62
2021/10/12 04:15:20;;;;;;;3.45;1.90;;;;;;;20.67;31.66;100425.66;4989063;28;20065;-61
2021/10/12 04:17:48;;;;;;;4.10;1.33;;;;;;;20.63;32.05;100438.06;4989753;28;20494;-64
2021/10/12 04:20:15;;;;;;;3.28;1.50;;;;;;;20.71;31.75;100431.47;4993217;28;20050;-60
2021/10/12 04:22:42;;;;;;;2.90;1.65;;;;;;;20.69;31.77;100426.16;4992906;28;20117;-62
2021/10/12 04:25:08;;;;;;;5.43;2.10;;;;;;;20.70;31.65;100433.47;4987336;28;20132;-59
2021/10/12 04:27:35;;;;;;;5.43;1.70;;;;;;;20.60;31.67;100408.41;4988960;28;20137;-66
2021/10/12 04:30:03;;;;;;;3.22;2.00;;;;;;;20.73;31.49;100412.91;4985708;28;20070;-66
2021/10/12 04:32:29;;;;;;;3.75;2.05;;;;;;;20.83;31.26;100434.34;4993098;28;20146;-66
2021/10/12 04:34:56;;;;;;;3.00;1.70;;;;;;;20.75;31.15;100404.88;4997121;28;20182;-68
2021/10/12 04:37:23;;;;;;;2.42;1.67;;;;;;;20.94;31.10;100429.84;4990777;28;20560;-66
2021/10/12 04:39:50;;;;;;;2.83;1.58;;;;;;;20.87;31.00;100429.59;4992491;28;20189;-64
2021/10/12 04:42:17;;;;;;;3.50;2.08;;;;;;;20.80;31.11;100424.50;4992208;28;20100;-64
2021/10/12 04:44:49;;;;;;;2.92;1.63;;;;;;;20.68;31.24;100418.81;4988351;28;20560;-68
2021/10/12 04:47:16;;;;;;;2.33;1.67;;;;;;;20.68;31.36;100420.81;4989295;28;20058;-69
2021/10/12 04:49:43;;;;;;;6.28;1.77;;;;;;;20.40;31.73;100384.56;4991666;28;20141;-68
2021/10/12 04:52:10;;;;;;;7.45;1.83;;;;;;;20.41;32.04;100405.25;4992174;28;20085;-61
2021/10/12 04:54:37;;;;;;;2.53;1.55;;;;;;;20.50;32.00;100432.38;4993647;28;20047;-62
2021/10/12 04:57:04;;;;;;;6.22;2.20;;;;;;;20.47;31.90;100412.34;4992307;28;20133;-62
2021/10/12 04:59:31;;;;;;;1.50;0.95;;;;;;;20.40;32.31;100432.78;4992526;28;20133;-61
2021/10/12 05:01:58;;;;;;;3.28;1.20;;;;;;;20.33;32.43;100421.19;4986668;28;20477;-61
2021/10/12 05:04:25;;;;;;;2.55;1.40;;;;;;;20.27;32.25;100422.56;4994283;28;20494;-60
2021/10/12 05:06:52;;;;;;;1.80;1.60;;;;;;;20.27;32.12;100419.72;4992281;28;20074;-59
2021/10/12 05:09:19;;;;;;;2.10;1.00;;;;;;;20.19;32.50;100409.31;4992530;28;20136;-60
2021/10/12 05:11:46;;;;;;;5.78;2.67;;;;;;;20.26;32.40;100416.06;4988312;28;20575;-60
2021/10/12 05:14:14;;;;;;;4.82;1.58;;;;;;;20.20;32.22;100411.78;4993259;28;20137;-59
2021/10/12 05:16:40;;;;;;;5.60;1.75;;;;;;;20.30;32.07;100421.88;4991898;28;20097;-61
2021/10/12 05:19:07;;;;;;;2.20;1.25;;;;;;;20.25;32.09;100413.59;4993494;28;20081;-60
2021/10/12 05:21:34;;;;;;;2.25;1.00;;;;;;;20.26;32.50;100432.25;4992631;28;20457;-59
2021/10/12 05:24:01;;;;;;;2.05;1.05;;;;;;;20.33;32.27;100426.84;4990489;28;20121;-58
2021/10/12 05:26:28;;;;;;;2.75;1.15;;;;;;;20.29;32.47;100434.41;4990974;28;20133;-58
2021/10/12 05:28:55;;;;;;;3.65;1.80;;;;;;;20.27;32.49;100416.91;4988217;28;20093;-59
2021/10/12 05:31:22;;;;;;;0.77;0.60;;;;;;;20.15;32.47;100409.19;4989006;28;20074;-59
2021/10/12 05:33:50;;;;;;;3.35;1.80;;;;;;;20.33;32.32;100418.34;4989464;28;20046;-59
2021/10/12 05:36:17;;;;;;;3.25;1.55;;;;;;;20.11;32.43;100391.22;4991519;28;20133;-62
2021/10/12 05:38:45;;;;;;;3.70;2.17;;;;;;;20.27;32.86;100434.75;4992036;28;20565;-66
2021/10/12 05:41:12;;;;;;;3.40;1.02;;;;;;;20.23;32.61;100413.09;4988840;28;20046;-62
2021/10/12 05:43:39;;;;;;;2.95;1.83;;;;;;;20.23;32.29;100424.44;4989715;28;20146;-63
2021/10/12 05:46:06;;;;;;;1.83;1.30;;;;;;;20.25;32.25;100425.75;4991572;28;20399;-63
2021/10/12 05:48:33;;;;;;;2.08;1.25;;;;;;;20.25;32.33;100433.44;4993430;28;20634;-65
2021/10/12 05:51:00;;;;;;;6.45;1.77;;;;;;;20.12;32.31;100427.72;4990869;28;20486;-65
2021/10/12 05:54:00;;;;;;;1.42;1.15;;;;;;;20.03;32.77;100431.81;4993705;28;20565;-63
2021/10/12 05:58:50;;;;;;;2.05;1.20;;;;;;;19.84;32.83;100420.97;4993654;28;20141;-63
2021/10/12 06:01:21;;;;;;;1.75;1.55;;;;;;;19.80;32.98;100420.03;4991196;28;20066;-63
2021/10/12 06:03:49;;;;;;;1.95;1.30;;;;;;;19.60;33.04;100388.47;4986506;28;20121;-63
2021/10/12 06:06:16;;;;;;;5.35;1.48;;;;;;;19.84;33.07;100423.81;4992756;28;20050;-62
2021/10/12 06:08:44;;;;;;;0.45;0.45;;;;;;;19.68;33.07;100426.44;4991470;28;20545;-62
2021/10/12 06:11:12;;;;;;;1.48;1.20;;;;;;;19.69;33.57;100418.75;4984614;28;20074;-62
2021/10/12 06:13:40;;;;;;;1.13;0.95;;;;;;;19.63;33.26;100424.66;4991944;28;20454;-62
2021/10/12 06:16:07;;;;;;;3.22;1.23;;;;;;;19.59;33.41;100426.50;4990512;28;20117;-61
2021/10/12 06:18:35;;;;;;;2.28;1.80;;;;;;;19.59;33.94;100425.66;4990999;28;20084;-64
2021/10/12 06:21:02;;;;;;;3.50;1.98;;;;;;;19.48;33.86;100425.22;4990039;28;20650;-62
2021/10/12 06:23:29;;;;;;;3.70;1.20;;;;;;;19.51;34.11;100418.88;4992654;28;20137;-63
2021/10/12 06:25:57;;;;;;;4.00;1.33;;;;;;;19.32;34.02;100396.69;4985962;28;20134;-63
2021/10/12 06:28:24;;;;;;;2.33;1.52;;;;;;;19.37;33.86;100423.97;4992824;28;20074;-63
2021/10/12 06:30:50;;;;;;;1.55;1.20;;;;;;;19.36;33.95;100420.31;4984840;28;20578;-60
2021/10/12 06:33:18;;;;;;;1.45;1.08;;;;;;;19.26;34.35;100406.53;4984643;28;20047;-61
2021/10/12 06:35:45;;;;;;;2.88;1.67;;;;;;;19.29;34.50;100413.53;4989504;28;20141;-60
2021/10/12 06:38:12;;;;;;;4.07;1.95;;;;;;;19.40;34.58;100440.28;4984095;28;20142;-60
2021/10/12 06:40:40;;;;;;;3.42;2.15;;;;;;;19.32;34.34;100432.66;4987537;28;20485;-59
2021/10/12 06:43:07;;;;;;;3.95;2.10;;;;;;;19.41;34.37;100441.91;4990551;28;20043;-61
2021/10/12 06:45:34;;;;;;;4.10;1.40;;;;;;;19.26;34.48;100422.72;4988091;28;20070;-61
2021/10/12 06:48:01;;;;;;;3.53;1.30;;;;;;;19.22;34.67;100433.06;4984773;28;20137;-62
2021/10/12 06:50:28;;;;;;;1.42;1.30;;;;;;;19.09;34.96;100424.47;4989186;28;20093;-62
2021/10/12 06:52:55;;;;;;;2.60;1.40;;;;;;;19.19;35.36;100443.06;4984613;28;20145;-62
2021/10/12 06:55:22;;;;;;;6.93;1.90;;;;;;;19.18;35.34;100439.41;4982587;28;20097;-62
2021/10/12 06:57:49;;;;;;;4.13;2.00;;;;;;;18.91;35.32;100394.59;4980771;28;20133;-62
2021/10/12 07:00:16;;;;;;;3.22;1.65;;;;;;;19.23;35.11;100446.03;4971903;28;20129;-61
2021/10/12 07:02:45;;;;;;;2.80;2.15;;;;;;;19.25;35.26;100443.69;4972211;28;20133;-61
2021/10/12 07:05:14;;;;;;;2.63;1.50;;;;;;;18.99;35.59;100401.38;4977057;28;20055;-62
2021/10/12 07:07:41;;;;;;;3.13;1.33;;;;;;;19.21;35.39;100431.38;4985565;28;20050;-62
2021/10/12 07:10:10;;;;;;;5.32;2.72;;;;;;;19.39;35.68;100444.28;4986464;28;20050;-61
2021/10/12 07:12:37;;;;;;;3.58;2.17;;;;;;;19.36;35.75;100450.63;4973852;28;20059;-62
2021/10/12 07:15:05;;;;;;;4.72;3.15;;;;;;;19.36;35.78;100439.31;4984059;28;20141;-62
2021/10/12 07:17:33;;;;;;;7.32;3.58;;;;;;;19.34;35.68;100435.97;4992926;28;20078;-62
2021/10/12 07:20:03;;;;;;;4.82;2.55;;;;;;;19.35;35.57;100431.97;4986555;28;20051;-62
2021/10/12 07:22:30;;;;;;;3.53;1.98;;;;;;;19.42;35.90;100452.09;4987881;28;20073;-62
2021/10/12 07:24:58;;;;;;;10.30;2.58;;;;;;;19.64;35.70;100457.47;4991985;28;20542;-62
2021/10/12 07:27:24;;;;;;;3.17;1.67;;;;;;;19.69;35.63;100472.59;4984109;28;20074;-62
2021/10/12 07:30:11;;;;;;;5.15;3.40;;;;;;;19.79;35.35;100456.00;4973737;28;20100;-63
2021/10/12 07:32:39;;;;;;;9.05;5.07;;;;;;;19.82;35.39;100455.31;4982414;28;20137;-63
2021/10/12 07:35:06;;;;;;;13.80;7.47;;;;;;;19.98;35.54;100466.88;4992549;28;20430;-62
2021/10/12 07:37:34;;;;;;;15.95;8.10;;;;;;;20.12;35.20;100464.56;4993006;28;20152;-62
2021/10/12 07:40:03;;;;;;;11.20;5.55;;;;;;;19.81;35.34;100404.69;4977450;28;20126;-63
2021/10/12 07:42:29;;;;;;;6.00;3.97;;;;;;;20.23;35.06;100472.66;4984291;28;20459;-62
2021/10/12 07:44:57;;;;;;;3.88;2.10;;;;;;;20.10;35.39;100455.59;4986549;28;20047;-63
2021/10/12 07:47:24;;;;;;;2.28;1.75;;;;;;;20.24;35.31;100480.81;4983920;28;20089;-64
2021/10/12 07:49:51;;;;;;;3.65;2.60;;;;;;;20.34;35.36;100490.88;4988446;28;20129;-63
2021/10/12 07:52:17;;;;;;;4.55;2.42;;;;;;;20.52;34.71;100485.94;4987859;28;20101;-62
2021/10/12 07:54:46;;;;;;;3.28;2.17;;;;;;;20.48;34.83;100484.94;4990787;28;20046;-62
2021/10/12 07:57:14;;;;;;;3.47;2.38;;;;;;;20.69;34.94;100480.06;4985274;28;20133;-62
2021/10/12 07:59:42;;;;;;;4.20;2.42;;;;;;;21.02;34.93;100471.47;4986480;28;20141;-62
2021/10/12 08:02:13;;;;;;;6.55;3.20;;;;;;;21.39;34.52;100497.09;4986490;28;20070;-62
2021/10/12 08:04:41;;;;;;;8.52;4.68;;;;;;;21.66;34.23;100484.16;4990695;28;20433;-62
2021/10/12 08:07:08;;;;;;;4.65;2.88;;;;;;;21.99;34.04;100503.06;4987530;28;20526;-70
2021/10/12 08:09:36;;;;;;;4.38;2.53;;;;;;;22.16;33.57;100493.47;4985817;28;20133;-72
2021/10/12 08:12:03;;;;;;;3.97;2.38;;;;;;;22.36;33.08;100483.03;4984593;28;20050;-70
2021/10/12 08:14:33;;;;;;;3.97;2.78;;;;;;;22.60;32.96;100513.44;4973262;28;20055;-71
2021/10/12 08:17:00;;;;;;;7.60;4.18;;;;;;;22.86;32.32;100513.75;4985028;28;20130;-70
2021/10/12 08:19:26;;;;;;;8.20;2.95;;;;;;;23.03;32.21;100500.38;4990743;28;20092;-71
2021/10/12 08:21:54;;;;;;;3.55;1.70;;;;;;;23.20;32.13;100507.75;4992869;28;20122;-70
2021/10/12 08:24:27;;;;;;;6.43;3.00;;;;;;;23.42;31.57;100507.13;4981883;28;20133;-70
2021/10/12 08:26:54;;;;;;;6.55;3.58;;;;;;;23.73;31.31;100511.16;4973090;28;20082;-71
2021/10/12 08:29:21;;;;;;;4.60;2.97;;;;;;;24.11;31.00;100510.41;4990355;28;20125;-70
2021/10/12 08:31:48;;;;;;;7.30;2.92;;;;;;;24.47;30.44;100505.47;4988243;28;20316;-70
2021/10/12 08:34:16;;;;;;;5.53;2.78;;;;;;;24.75;30.17;100493.78;4984501;28;20380;-70
2021/10/12 08:36:43;;;;;;;8.95;3.65;;;;;;;24.81;29.96;100498.81;4984971;28;20570;-70
2021/10/12 08:39:10;;;;;;;4.28;2.75;;;;;;;25.10;29.93;100510.78;4984575;28;20073;-69
2021/10/12 08:41:44;;;;;;;6.40;2.08;;;;;;;25.55;29.71;100502.59;4990566;28;20533;-69
2021/10/12 08:44:11;;;;;;;5.78;3.25;;;;;;;25.85;29.24;100511.28;4991930;28;20137;-70
2021/10/12 08:46:40;;;;;;;3.60;1.95;;;;;;;25.87;28.74;100514.56;4987050;28;20529;-70
2021/10/12 08:49:07;;;;;;;6.00;2.60;;;;;;;26.01;28.54;100529.06;4977028;28;20043;-70
2021/10/12 08:51:34;;;;;;;5.40;3.13;;;;;;;26.17;28.21;100526.84;4989801;28;20567;-69
2021/10/12 08:54:01;;;;;;;9.85;3.10;;;;;;;26.10;28.35;100531.66;4981273;28;20074;-70
2021/10/12 08:56:27;;;;;;;5.13;2.40;;;;;;;26.16;28.35;100527.25;4986000;28;20054;-70
2021/10/12 08:58:54;;;;;;;5.75;2.70;;;;;;;26.27;28.60;100521.66;4994371;28;20458;-70
2021/10/12 09:01:21;;;;;;;4.50;2.67;;;;;;;26.60;27.84;100535.19;4987017;28;20133;-69
2021/10/12 09:03:59;;;;;;;3.75;2.10;;;;;;;26.65;27.43;100532.81;4984330;28;20074;-70
2021/10/12 09:06:31;;;;;;;2.95;1.88;;;;;;;26.27;27.67;100533.13;4993783;28;20053;-71
2021/10/12 09:09:15;;;;;;;1.50;1.40;;;;;;;26.16;27.51;100544.44;4991893;28;20053;-71
2021/10/12 09:11:45;;;;;;;5.32;2.10;;;;;;;26.19;27.74;100547.34;4984071;28;20051;-70
2021/10/12 09:14:12;;;;;;;3.80;1.75;;;;;;;26.49;27.89;100540.78;4981992;28;20050;-70
2021/10/12 09:16:44;;;;;;;10.85;2.90;;;;;;;26.68;27.28;100534.09;4981652;28;20065;-70
2021/10/12 09:19:13;;;;;;;2.55;2.13;;;;;;;26.66;27.47;100513.59;4993567;28;20085;-70
2021/10/12 09:21:49;;;;;;;3.63;2.00;;;;;;;27.00;27.19;100534.44;4978514;28;20062;-71
2021/10/12 09:24:19;;;;;;;4.07;2.45;;;;;;;27.10;26.61;100542.31;4992752;28;20046;-69
2021/10/12 09:26:55;;;;;;;3.67;2.42;;;;;;;27.12;26.74;100539.94;4989392;28;20042;-69
2021/10/12 09:31:56;;;;;;;3.33;2.30;;;;;;;27.27;26.53;100540.06;4975219;28;20125;-69
2021/10/12 09:34:28;;;;;;;4.70;2.33;;;;;;;27.30;26.25;100539.28;4987465;28;20096;-68
2021/10/12 09:36:55;;;;;;;6.15;2.60;;;;;;;27.36;26.08;100540.56;4986899;28;20050;-69
2021/10/12 09:39:41;;;;;;;3.97;2.47;;;;;;;27.67;26.29;100544.94;4993631;28;20474;-69
2021/10/12 09:42:11;;;;;;;3.65;2.20;;;;;;;27.70;25.58;100541.28;4986690;28;20051;-69
2021/10/12 09:44:50;;;;;;;1.98;1.75;;;;;;;27.60;25.84;100542.00;4986912;28;20092;-68
2021/10/12 09:47:18;;;;;;;4.30;2.42;;;;;;;27.82;25.89;100531.53;4991190;28;20062;-69
2021/10/12 09:49:45;;;;;;;6.43;2.70;;;;;;;27.63;25.76;100536.31;4988770;28;20125;-69
2021/10/12 09:52:20;;;;;;;8.52;3.20;;;;;;;27.58;26.14;100542.38;4983698;28;20042;-69
2021/10/12 09:54:52;;;;;;;7.32;2.92;;;;;;;27.69;25.98;100538.78;4989742;28;20379;-69
2021/10/12 09:57:21;;;;;;;3.92;2.20;;;;;;;27.88;25.95;100527.06;4986943;28;20091;-69
2021/10/12 09:59:48;;;;;;;3.17;2.40;;;;;;;28.16;25.88;100545.72;4986476;28;20078;-68
2021/10/12 10:02:20;;;;;;;4.88;2.63;;;;;;;27.94;25.71;100536.97;4984371;28;20050;-69
2021/10/12 10:04:48;;;;;;;4.30;2.20;;;;;;;27.96;25.88;100525.88;4983005;28;20113;-67
2021/10/12 10:07:25;;;;;;;5.00;2.90;;;;;;;27.87;25.85;100534.88;4993326;28;20087;-67
2021/10/12 10:09:56;;;;;;;4.50;2.78;;;;;;;28.14;26.03;100542.41;4984209;28;20043;-68
2021/10/12 10:12:25;;;;;;;2.60;2.13;;;;;;;28.47;25.53;100524.16;4979382;28;20542;-67
2021/10/12 10:14:52;;;;;;;4.32;2.65;;;;;;;29.02;25.33;100536.25;4986283;28;20069;-67
2021/10/12 10:17:21;;;;;;;2.70;2.00;;;;;;;29.57;25.05;100526.47;4990313;28;20042;-68
2021/10/12 10:19:49;;;;;;;;;;;;;;;28.96;25.34;100532.13;4985125;28;20161;-68
2021/10/12 10:22:38;;;;;;;4.47;2.88;;;;;;;28.99;25.38;100525.59;4980925;28;19926;-67
2021/10/12 10:25:34;;;;;;;4.88;2.65;;;;;;;29.21;25.03;100523.56;4980438;28;20078;-68
2021/10/12 10:28:16;;;;;;;7.00;3.40;;;;;;;29.49;25.19;100525.66;4988886;28;20499;-68
2021/10/12 10:30:46;;;;;;;4.03;2.72;;;;;;;30.01;24.68;100528.09;4979644;28;20080;-69
2021/10/12 10:33:35;;;;;;;4.68;2.20;;;;;;;30.24;24.06;100524.78;4989386;28;20058;-69
2021/10/12 10:36:04;;;;;;;7.00;3.20;;;;;;;30.24;24.09;100529.72;4976368;28;20129;-69
2021/10/12 10:38:42;;;;;;;;;;;;;;;29.86;24.74;100535.94;4985414;28;20057;-68
2021/10/12 10:41:15;;;;;;;5.55;3.05;;;;;;;30.38;24.27;100533.38;4988134;28;19969;-68
2021/10/12 10:43:48;;;;;;;3.90;2.67;;;;;;;30.59;23.98;100528.75;4986988;28;20046;-68
2021/10/12 10:46:33;;;;;;;6.00;3.38;;;;;;;30.21;23.42;100525.59;4988941;28;20129;-68
2021/10/12 10:49:09;;;;;;;7.63;2.95;;;;;;;30.30;23.97;100520.25;4983960;28;20057;-68
2021/10/12 10:51:45;;;;;;;5.82;3.95;;;;;;;30.29;23.93;100527.25;4976750;28;20120;-68
2021/10/12 10:54:47;;;;;;;5.10;3.28;;;;;;;29.99;24.54;100524.81;4982625;28;20074;-68
2021/10/12 10:57:15;;;;;;;5.22;3.53;;;;;;;30.86;23.90;100527.00;4974251;28;20133;-68
2021/10/12 10:59:42;;;;;;;5.03;3.30;;;;;;;31.05;23.47;100516.19;4982066;28;20058;-68
2021/10/12 11:02:31;;;;;;;6.40;3.80;;;;;;;31.37;23.99;100521.75;4983038;28;20117;-68
2021/10/12 11:04:58;;;;;;;4.88;2.85;;;;;;;32.05;23.11;100538.50;4976604;28;20046;-68
2021/10/12 11:07:26;;;;;;;5.75;3.47;;;;;;;31.80;22.60;100528.00;4977439;28;20133;-67
2021/10/12 11:09:54;;;;;;;6.10;3.42;;;;;;;31.93;22.88;100524.56;4987150;28;20125;-68
2021/10/12 11:12:23;;;;;;;7.07;3.80;;;;;;;32.22;22.23;100513.56;4973087;28;20086;-68
2021/10/12 11:14:52;;;;;;;5.82;3.47;;;;;;;32.35;21.68;100523.31;4989701;28;20141;-68
2021/10/12 11:17:23;;;;;;;5.32;3.03;;;;;;;32.54;22.18;100513.19;4989853;28;20050;-68
2021/10/12 11:20:00;;;;;;;5.78;3.00;;;;;;;32.56;21.47;100520.16;4975616;28;20137;-68
2021/10/12 11:22:29;;;;;;;6.07;3.13;;;;;;;32.56;21.39;100502.81;4983735;28;20046;-74
2021/10/12 11:24:57;;;;;;;5.57;2.83;;;;;;;32.84;21.77;100511.53;4980094;28;20078;-65
2021/10/12 11:27:53;;;;;;;6.05;3.33;;;;;;;33.09;21.26;100506.22;4990099;28;20046;-59
2021/10/12 11:30:20;;;;;;;4.07;2.78;;;;;;;33.54;20.78;100510.91;4992075;28;20070;-60
2021/10/12 11:32:56;;;;;;;6.35;3.30;;;;;;;34.11;20.39;100507.81;4987227;28;20081;-61
2021/10/12 11:35:37;;;;;;;4.78;3.17;;;;;;;34.15;20.31;100499.06;4987714;28;20081;-62
2021/10/12 11:38:06;;;;;;;5.13;3.17;;;;;;;34.18;19.90;100501.88;4979700;28;20078;-62